sensor_id;sensor_type;location;lat;lon;timestamp;P1;durP1;ratioP1;P2;durP2;ratioP2
75716;SDS011;64333;50.138;14.332;2023-02-28T00:02:16;10.15;;;5.90;;
75716;SDS011;64333;50.138;14.332;2023-02-28T00:04:44;8.63;;;5.32;;
75716;SDS011;64333;50.138;14.332;2023-02-28T00:07:09;8.93;;;5.38;;
75716;SDS011;64333;50.138;14.332;2023-02-28T00:09:34;12.38;;;6.03;;
75716;SDS011;64333;50.138;14.332;2023-02-28T00:12:00;8.77;;;6.10;;
75716;SDS011;64333;50.138;14.332;2023-02-28T00:14:35;12.02;;;6.30;;
75716;SDS011;64333;50.138;14.332;2023-02-28T00:17:00;11.35;;;5.63;;
75716;SDS011;64333;50.138;14.332;2023-02-28T00:19:26;11.77;;;5.97;;
75716;SDS011;64333;50.138;14.332;2023-02-28T00:21:51;9.73;;;5.10;;
75716;SDS011;64333;50.138;14.332;2023-02-28T00:24:16;12.68;;;6.25;;
75716;SDS011;64333;50.138;14.332;2023-02-28T00:26:42;11.52;;;5.75;;
75716;SDS011;64333;50.138;14.332;2023-02-28T00:29:07;9.38;;;5.72;;
75716;SDS011;64333;50.138;14.332;2023-02-28T00:31:32;9.80;;;5.18;;
75716;SDS011;64333;50.138;14.332;2023-02-28T00:33:58;13.02;;;5.80;;
75716;SDS011;64333;50.138;14.332;2023-02-28T00:36:23;12.30;;;6.93;;
75716;SDS011;64333;50.138;14.332;2023-02-28T00:38:48;10.00;;;5.53;;
75716;SDS011;64333;50.138;14.332;2023-02-28T00:41:14;8.80;;;5.35;;
75716;SDS011;64333;50.138;14.332;2023-02-28T00:43:39;9.85;;;5.45;;
75716;SDS011;64333;50.138;14.332;2023-02-28T00:46:05;12.15;;;5.97;;
75716;SDS011;64333;50.138;14.332;2023-02-28T00:48:31;11.82;;;5.78;;
75716;SDS011;64333;50.138;14.332;2023-02-28T00:50:56;10.45;;;5.72;;
75716;SDS011;64333;50.138;14.332;2023-02-28T00:53:22;10.60;;;4.60;;
75716;SDS011;64333;50.138;14.332;2023-02-28T00:55:48;9.60;;;5.43;;
75716;SDS011;64333;50.138;14.332;2023-02-28T00:58:14;10.32;;;4.97;;
75716;SDS011;64333;50.138;14.332;2023-02-28T01:00:39;9.30;;;4.97;;
75716;SDS011;64333;50.138;14.332;2023-02-28T01:03:05;9.20;;;5.43;;
75716;SDS011;64333;50.138;14.332;2023-02-28T01:05:30;11.05;;;5.65;;
75716;SDS011;64333;50.138;14.332;2023-02-28T01:07:55;10.57;;;6.30;;
75716;SDS011;64333;50.138;14.332;2023-02-28T01:10:21;10.13;;;5.68;;
75716;SDS011;64333;50.138;14.332;2023-02-28T01:12:46;12.27;;;6.25;;
75716;SDS011;64333;50.138;14.332;2023-02-28T01:15:11;10.77;;;6.10;;
75716;SDS011;64333;50.138;14.332;2023-02-28T01:17:37;13.60;;;6.35;;
75716;SDS011;64333;50.138;14.332;2023-02-28T01:20:02;6.55;;;4.90;;
75716;SDS011;64333;50.138;14.332;2023-02-28T01:22:28;8.82;;;5.32;;
75716;SDS011;64333;50.138;14.332;2023-02-28T01:24:53;11.07;;;6.15;;
75716;SDS011;64333;50.138;14.332;2023-02-28T01:27:19;10.38;;;5.38;;
75716;SDS011;64333;50.138;14.332;2023-02-28T01:29:44;9.38;;;5.63;;
75716;SDS011;64333;50.138;14.332;2023-02-28T01:32:10;11.90;;;6.10;;
75716;SDS011;64333;50.138;14.332;2023-02-28T01:34:35;10.75;;;6.22;;
75716;SDS011;64333;50.138;14.332;2023-02-28T01:37:00;10.00;;;5.60;;
75716;SDS011;64333;50.138;14.332;2023-02-28T01:39:26;9.25;;;6.07;;
75716;SDS011;64333;50.138;14.332;2023-02-28T01:41:51;11.73;;;6.13;;
75716;SDS011;64333;50.138;14.332;2023-02-28T01:47:20;10.52;;;5.75;;
75716;SDS011;64333;50.138;14.332;2023-02-28T01:49:46;9.50;;;5.43;;
75716;SDS011;64333;50.138;14.332;2023-02-28T01:52:12;11.88;;;5.80;;
75716;SDS011;64333;50.138;14.332;2023-02-28T01:54:43;9.63;;;5.40;;
75716;SDS011;64333;50.138;14.332;2023-02-28T01:57:15;14.52;;;6.85;;
75716;SDS011;64333;50.138;14.332;2023-02-28T01:59:47;10.60;;;5.72;;
75716;SDS011;64333;50.138;14.332;2023-02-28T02:02:17;10.25;;;5.88;;
75716;SDS011;64333;50.138;14.332;2023-02-28T02:04:55;12.52;;;5.78;;
75716;SDS011;64333;50.138;14.332;2023-02-28T02:07:36;8.85;;;5.65;;
75716;SDS011;64333;50.138;14.332;2023-02-28T02:18:03;10.52;;;5.90;;
75716;SDS011;64333;50.138;14.332;2023-02-28T02:32:04;9.02;;;4.97;;
75716;SDS011;64333;50.138;14.332;2023-02-28T02:35:11;8.68;;;5.30;;
75716;SDS011;64333;50.138;14.332;2023-02-28T02:42:46;10.55;;;5.80;;
75716;SDS011;64333;50.138;14.332;2023-02-28T02:45:18;11.45;;;5.43;;
75716;SDS011;64333;50.138;14.332;2023-02-28T02:47:49;10.90;;;5.97;;
75716;SDS011;64333;50.138;14.332;2023-02-28T02:50:17;9.55;;;5.40;;
75716;SDS011;64333;50.138;14.332;2023-02-28T02:52:56;10.50;;;5.32;;
75716;SDS011;64333;50.138;14.332;2023-02-28T02:55:25;10.50;;;4.82;;
75716;SDS011;64333;50.138;14.332;2023-02-28T02:57:52;10.15;;;5.68;;
75716;SDS011;64333;50.138;14.332;2023-02-28T03:00:23;9.15;;;5.72;;
75716;SDS011;64333;50.138;14.332;2023-02-28T03:02:55;10.00;;;5.90;;
75716;SDS011;64333;50.138;14.332;2023-02-28T03:05:26;8.60;;;4.70;;
75716;SDS011;64333;50.138;14.332;2023-02-28T03:07:55;8.32;;;5.00;;
75716;SDS011;64333;50.138;14.332;2023-02-28T03:10:31;10.32;;;4.88;;
75716;SDS011;64333;50.138;14.332;2023-02-28T03:15:37;10.40;;;4.85;;
75716;SDS011;64333;50.138;14.332;2023-02-28T03:21:02;11.02;;;4.90;;
75716;SDS011;64333;50.138;14.332;2023-02-28T03:26:24;7.97;;;4.38;;
75716;SDS011;64333;50.138;14.332;2023-02-28T03:36:43;10.32;;;4.88;;
75716;SDS011;64333;50.138;14.332;2023-02-28T03:39:56;11.10;;;5.65;;
75716;SDS011;64333;50.138;14.332;2023-02-28T03:42:22;9.38;;;5.00;;
75716;SDS011;64333;50.138;14.332;2023-02-28T03:44:52;10.68;;;5.10;;
75716;SDS011;64333;50.138;14.332;2023-02-28T03:47:26;9.65;;;4.75;;
75716;SDS011;64333;50.138;14.332;2023-02-28T03:50:11;10.15;;;5.30;;
75716;SDS011;64333;50.138;14.332;2023-02-28T03:53:02;10.00;;;5.20;;
75716;SDS011;64333;50.138;14.332;2023-02-28T03:55:44;11.48;;;6.03;;
75716;SDS011;64333;50.138;14.332;2023-02-28T03:58:15;9.85;;;5.20;;
75716;SDS011;64333;50.138;14.332;2023-02-28T04:00:52;10.68;;;5.00;;
75716;SDS011;64333;50.138;14.332;2023-02-28T04:03:22;8.00;;;4.30;;
75716;SDS011;64333;50.138;14.332;2023-02-28T04:05:52;10.30;;;5.47;;
75716;SDS011;64333;50.138;14.332;2023-02-28T04:08:19;10.38;;;5.68;;
75716;SDS011;64333;50.138;14.332;2023-02-28T04:10:48;9.20;;;5.47;;
75716;SDS011;64333;50.138;14.332;2023-02-28T04:13:18;11.07;;;5.75;;
75716;SDS011;64333;50.138;14.332;2023-02-28T04:15:43;11.90;;;5.93;;
75716;SDS011;64333;50.138;14.332;2023-02-28T04:18:08;11.00;;;5.97;;
75716;SDS011;64333;50.138;14.332;2023-02-28T04:20:34;13.00;;;5.80;;
75716;SDS011;64333;50.138;14.332;2023-02-28T04:22:59;9.50;;;5.03;;
75716;SDS011;64333;50.138;14.332;2023-02-28T04:25:24;10.48;;;5.18;;
75716;SDS011;64333;50.138;14.332;2023-02-28T04:27:50;9.05;;;5.00;;
75716;SDS011;64333;50.138;14.332;2023-02-28T04:30:15;12.57;;;6.25;;
75716;SDS011;64333;50.138;14.332;2023-02-28T04:32:41;14.15;;;5.22;;
75716;SDS011;64333;50.138;14.332;2023-02-28T04:35:06;10.55;;;5.45;;
75716;SDS011;64333;50.138;14.332;2023-02-28T04:37:32;12.40;;;6.03;;
75716;SDS011;64333;50.138;14.332;2023-02-28T04:39:59;11.05;;;5.80;;
75716;SDS011;64333;50.138;14.332;2023-02-28T04:42:25;11.05;;;6.20;;
75716;SDS011;64333;50.138;14.332;2023-02-28T04:44:51;11.85;;;6.05;;
75716;SDS011;64333;50.138;14.332;2023-02-28T04:47:16;13.52;;;6.82;;
75716;SDS011;64333;50.138;14.332;2023-02-28T04:49:42;13.13;;;5.47;;
75716;SDS011;64333;50.138;14.332;2023-02-28T04:52:07;12.98;;;6.32;;
75716;SDS011;64333;50.138;14.332;2023-02-28T04:54:34;10.88;;;5.97;;
75716;SDS011;64333;50.138;14.332;2023-02-28T04:57:00;12.00;;;5.28;;
75716;SDS011;64333;50.138;14.332;2023-02-28T04:59:26;10.57;;;5.55;;
75716;SDS011;64333;50.138;14.332;2023-02-28T05:01:52;10.60;;;5.03;;
75716;SDS011;64333;50.138;14.332;2023-02-28T05:04:17;11.77;;;6.10;;
75716;SDS011;64333;50.138;14.332;2023-02-28T05:06:42;13.85;;;6.10;;
75716;SDS011;64333;50.138;14.332;2023-02-28T05:09:08;12.27;;;6.60;;
75716;SDS011;64333;50.138;14.332;2023-02-28T05:11:33;13.93;;;5.95;;
75716;SDS011;64333;50.138;14.332;2023-02-28T05:14:04;13.98;;;6.25;;
75716;SDS011;64333;50.138;14.332;2023-02-28T05:16:37;12.07;;;6.28;;
75716;SDS011;64333;50.138;14.332;2023-02-28T05:19:03;12.93;;;6.22;;
75716;SDS011;64333;50.138;14.332;2023-02-28T05:21:30;11.57;;;5.95;;
75716;SDS011;64333;50.138;14.332;2023-02-28T05:24:03;16.50;;;7.15;;
75716;SDS011;64333;50.138;14.332;2023-02-28T05:28:56;8.73;;;4.78;;
75716;SDS011;64333;50.138;14.332;2023-02-28T05:31:22;13.48;;;6.78;;
75716;SDS011;64333;50.138;14.332;2023-02-28T05:33:47;11.63;;;5.82;;
75716;SDS011;64333;50.138;14.332;2023-02-28T05:36:13;12.70;;;5.90;;
75716;SDS011;64333;50.138;14.332;2023-02-28T05:38:39;18.30;;;9.27;;
75716;SDS011;64333;50.138;14.332;2023-02-28T05:41:05;14.07;;;7.38;;
75716;SDS011;64333;50.138;14.332;2023-02-28T05:43:35;13.40;;;6.93;;
75716;SDS011;64333;50.138;14.332;2023-02-28T05:46:02;13.05;;;6.45;;
75716;SDS011;64333;50.138;14.332;2023-02-28T05:48:33;12.63;;;6.57;;
75716;SDS011;64333;50.138;14.332;2023-02-28T05:50:59;13.13;;;6.90;;
75716;SDS011;64333;50.138;14.332;2023-02-28T05:53:25;17.10;;;7.60;;
75716;SDS011;64333;50.138;14.332;2023-02-28T05:55:51;15.23;;;9.43;;
75716;SDS011;64333;50.138;14.332;2023-02-28T05:58:16;17.95;;;8.02;;
75716;SDS011;64333;50.138;14.332;2023-02-28T06:00:42;15.10;;;7.40;;
75716;SDS011;64333;50.138;14.332;2023-02-28T06:03:07;14.07;;;7.60;;
75716;SDS011;64333;50.138;14.332;2023-02-28T06:05:32;19.55;;;8.68;;
75716;SDS011;64333;50.138;14.332;2023-02-28T06:07:58;15.20;;;7.70;;
75716;SDS011;64333;50.138;14.332;2023-02-28T06:10:23;15.95;;;8.30;;
75716;SDS011;64333;50.138;14.332;2023-02-28T06:12:49;16.73;;;6.90;;
75716;SDS011;64333;50.138;14.332;2023-02-28T06:15:14;13.18;;;6.40;;
75716;SDS011;64333;50.138;14.332;2023-02-28T06:17:42;11.63;;;6.88;;
75716;SDS011;64333;50.138;14.332;2023-02-28T06:20:08;11.65;;;6.32;;
75716;SDS011;64333;50.138;14.332;2023-02-28T06:22:35;15.40;;;7.60;;
75716;SDS011;64333;50.138;14.332;2023-02-28T06:25:02;13.13;;;6.93;;
75716;SDS011;64333;50.138;14.332;2023-02-28T06:27:28;11.55;;;7.43;;
75716;SDS011;64333;50.138;14.332;2023-02-28T06:29:54;11.60;;;5.75;;
75716;SDS011;64333;50.138;14.332;2023-02-28T06:32:22;10.48;;;5.65;;
75716;SDS011;64333;50.138;14.332;2023-02-28T06:34:48;15.13;;;7.22;;
75716;SDS011;64333;50.138;14.332;2023-02-28T06:37:13;12.70;;;6.65;;
75716;SDS011;64333;50.138;14.332;2023-02-28T06:39:39;14.50;;;7.40;;
75716;SDS011;64333;50.138;14.332;2023-02-28T06:42:04;15.40;;;7.03;;
75716;SDS011;64333;50.138;14.332;2023-02-28T06:44:30;12.70;;;6.97;;
75716;SDS011;64333;50.138;14.332;2023-02-28T06:47:00;13.55;;;6.88;;
75716;SDS011;64333;50.138;14.332;2023-02-28T06:49:32;11.93;;;6.10;;
75716;SDS011;64333;50.138;14.332;2023-02-28T06:51:58;12.95;;;6.88;;
75716;SDS011;64333;50.138;14.332;2023-02-28T06:54:24;10.35;;;5.78;;
75716;SDS011;64333;50.138;14.332;2023-02-28T06:56:49;8.75;;;5.97;;
75716;SDS011;64333;50.138;14.332;2023-02-28T06:59:15;12.35;;;7.20;;
75716;SDS011;64333;50.138;14.332;2023-02-28T07:01:41;13.52;;;7.28;;
75716;SDS011;64333;50.138;14.332;2023-02-28T07:04:06;14.18;;;6.65;;
75716;SDS011;64333;50.138;14.332;2023-02-28T07:06:32;9.70;;;6.43;;
75716;SDS011;64333;50.138;14.332;2023-02-28T07:08:57;13.93;;;7.07;;
75716;SDS011;64333;50.138;14.332;2023-02-28T07:11:26;12.30;;;6.35;;
75716;SDS011;64333;50.138;14.332;2023-02-28T07:13:53;10.82;;;6.35;;
75716;SDS011;64333;50.138;14.332;2023-02-28T07:16:19;10.13;;;6.60;;
75716;SDS011;64333;50.138;14.332;2023-02-28T07:18:45;10.90;;;5.80;;
75716;SDS011;64333;50.138;14.332;2023-02-28T07:21:10;10.95;;;6.47;;
75716;SDS011;64333;50.138;14.332;2023-02-28T07:23:36;9.77;;;5.78;;
75716;SDS011;64333;50.138;14.332;2023-02-28T07:26:03;11.25;;;5.85;;
75716;SDS011;64333;50.138;14.332;2023-02-28T07:28:29;11.90;;;6.72;;
75716;SDS011;64333;50.138;14.332;2023-02-28T07:30:55;10.77;;;6.65;;
75716;SDS011;64333;50.138;14.332;2023-02-28T07:33:20;9.10;;;5.47;;
75716;SDS011;64333;50.138;14.332;2023-02-28T07:35:45;10.85;;;6.28;;
75716;SDS011;64333;50.138;14.332;2023-02-28T07:38:11;11.95;;;6.72;;
75716;SDS011;64333;50.138;14.332;2023-02-28T07:40:38;8.77;;;5.70;;
75716;SDS011;64333;50.138;14.332;2023-02-28T07:43:04;9.00;;;6.03;;
75716;SDS011;64333;50.138;14.332;2023-02-28T07:45:30;8.75;;;5.70;;
75716;SDS011;64333;50.138;14.332;2023-02-28T07:47:59;9.68;;;5.75;;
75716;SDS011;64333;50.138;14.332;2023-02-28T07:50:25;9.77;;;5.28;;
75716;SDS011;64333;50.138;14.332;2023-02-28T07:52:54;10.50;;;5.70;;
75716;SDS011;64333;50.138;14.332;2023-02-28T07:55:19;13.45;;;5.57;;
75716;SDS011;64333;50.138;14.332;2023-02-28T07:57:45;8.25;;;4.72;;
75716;SDS011;64333;50.138;14.332;2023-02-28T08:00:10;10.40;;;5.45;;
75716;SDS011;64333;50.138;14.332;2023-02-28T08:02:37;10.20;;;5.60;;
75716;SDS011;64333;50.138;14.332;2023-02-28T08:05:03;10.77;;;5.68;;
75716;SDS011;64333;50.138;14.332;2023-02-28T08:07:29;8.00;;;5.60;;
75716;SDS011;64333;50.138;14.332;2023-02-28T08:09:54;9.38;;;5.93;;
75716;SDS011;64333;50.138;14.332;2023-02-28T08:12:20;10.35;;;6.03;;
75716;SDS011;64333;50.138;14.332;2023-02-28T08:14:46;10.00;;;6.03;;
75716;SDS011;64333;50.138;14.332;2023-02-28T08:17:11;11.40;;;6.93;;
75716;SDS011;64333;50.138;14.332;2023-02-28T08:19:37;9.05;;;6.70;;
75716;SDS011;64333;50.138;14.332;2023-02-28T08:22:03;10.75;;;6.50;;
75716;SDS011;64333;50.138;14.332;2023-02-28T08:24:28;8.73;;;6.25;;
75716;SDS011;64333;50.138;14.332;2023-02-28T08:26:54;10.55;;;5.93;;
75716;SDS011;64333;50.138;14.332;2023-02-28T08:29:19;10.35;;;5.90;;
75716;SDS011;64333;50.138;14.332;2023-02-28T08:31:45;10.10;;;6.20;;
75716;SDS011;64333;50.138;14.332;2023-02-28T08:34:14;12.23;;;6.47;;
75716;SDS011;64333;50.138;14.332;2023-02-28T08:36:41;13.02;;;6.85;;
75716;SDS011;64333;50.138;14.332;2023-02-28T08:39:09;10.50;;;6.90;;
75716;SDS011;64333;50.138;14.332;2023-02-28T08:41:34;10.50;;;7.10;;
75716;SDS011;64333;50.138;14.332;2023-02-28T08:44:00;10.40;;;6.32;;
75716;SDS011;64333;50.138;14.332;2023-02-28T08:46:25;10.68;;;6.63;;
75716;SDS011;64333;50.138;14.332;2023-02-28T08:48:54;10.52;;;6.97;;
75716;SDS011;64333;50.138;14.332;2023-02-28T08:51:24;9.90;;;6.75;;
75716;SDS011;64333;50.138;14.332;2023-02-28T08:53:53;11.63;;;7.20;;
75716;SDS011;64333;50.138;14.332;2023-02-28T08:56:20;10.82;;;6.97;;
75716;SDS011;64333;50.138;14.332;2023-02-28T08:58:46;12.73;;;6.82;;
75716;SDS011;64333;50.138;14.332;2023-02-28T09:01:14;9.55;;;6.95;;
75716;SDS011;64333;50.138;14.332;2023-02-28T09:03:40;9.52;;;6.05;;
75716;SDS011;64333;50.138;14.332;2023-02-28T09:06:06;11.48;;;7.55;;
75716;SDS011;64333;50.138;14.332;2023-02-28T09:08:33;11.20;;;7.20;;
75716;SDS011;64333;50.138;14.332;2023-02-28T09:10:58;10.65;;;6.75;;
75716;SDS011;64333;50.138;14.332;2023-02-28T09:13:25;9.35;;;6.00;;
75716;SDS011;64333;50.138;14.332;2023-02-28T09:15:51;9.30;;;6.50;;
75716;SDS011;64333;50.138;14.332;2023-02-28T09:18:17;10.77;;;7.00;;
75716;SDS011;64333;50.138;14.332;2023-02-28T09:20:43;15.05;;;6.93;;
75716;SDS011;64333;50.138;14.332;2023-02-28T09:23:10;9.90;;;6.65;;
75716;SDS011;64333;50.138;14.332;2023-02-28T09:25:36;8.32;;;6.10;;
75716;SDS011;64333;50.138;14.332;2023-02-28T09:28:02;9.27;;;6.88;;
75716;SDS011;64333;50.138;14.332;2023-02-28T09:30:28;9.20;;;6.43;;
75716;SDS011;64333;50.138;14.332;2023-02-28T09:32:54;8.40;;;5.43;;
75716;SDS011;64333;50.138;14.332;2023-02-28T09:35:20;10.68;;;7.55;;
75716;SDS011;64333;50.138;14.332;2023-02-28T09:37:47;8.52;;;6.10;;
75716;SDS011;64333;50.138;14.332;2023-02-28T09:40:14;9.50;;;6.80;;
75716;SDS011;64333;50.138;14.332;2023-02-28T09:42:42;12.50;;;6.05;;
75716;SDS011;64333;50.138;14.332;2023-02-28T09:45:17;8.13;;;6.22;;
75716;SDS011;64333;50.138;14.332;2023-02-28T09:47:48;10.15;;;6.85;;
75716;SDS011;64333;50.138;14.332;2023-02-28T09:52:51;9.35;;;5.78;;
75716;SDS011;64333;50.138;14.332;2023-02-28T09:55:24;9.90;;;6.47;;
75716;SDS011;64333;50.138;14.332;2023-02-28T09:57:54;10.30;;;6.18;;
75716;SDS011;64333;50.138;14.332;2023-02-28T10:05:43;8.85;;;6.35;;
75716;SDS011;64333;50.138;14.332;2023-02-28T10:08:28;8.13;;;5.35;;
75716;SDS011;64333;50.138;14.332;2023-02-28T10:10:58;9.00;;;6.03;;
75716;SDS011;64333;50.138;14.332;2023-02-28T10:13:32;9.68;;;5.75;;
75716;SDS011;64333;50.138;14.332;2023-02-28T10:16:08;10.43;;;6.30;;
75716;SDS011;64333;50.138;14.332;2023-02-28T10:18:42;10.20;;;6.32;;
75716;SDS011;64333;50.138;14.332;2023-02-28T10:21:23;9.25;;;6.30;;
75716;SDS011;64333;50.138;14.332;2023-02-28T10:23:51;10.40;;;6.75;;
75716;SDS011;64333;50.138;14.332;2023-02-28T10:26:22;9.63;;;6.45;;
75716;SDS011;64333;50.138;14.332;2023-02-28T10:28:49;8.85;;;6.47;;
75716;SDS011;64333;50.138;14.332;2023-02-28T10:31:18;9.60;;;6.57;;
75716;SDS011;64333;50.138;14.332;2023-02-28T10:33:44;9.15;;;6.47;;
75716;SDS011;64333;50.138;14.332;2023-02-28T10:36:19;9.27;;;6.65;;
75716;SDS011;64333;50.138;14.332;2023-02-28T10:38:46;11.23;;;7.55;;
75716;SDS011;64333;50.138;14.332;2023-02-28T10:41:33;9.90;;;6.03;;
75716;SDS011;64333;50.138;14.332;2023-02-28T10:46:41;8.13;;;6.18;;
75716;SDS011;64333;50.138;14.332;2023-02-28T10:49:28;8.18;;;6.32;;
75716;SDS011;64333;50.138;14.332;2023-02-28T10:52:02;8.82;;;6.70;;
75716;SDS011;64333;50.138;14.332;2023-02-28T10:54:29;9.82;;;6.65;;
75716;SDS011;64333;50.138;14.332;2023-02-28T10:57:06;9.32;;;7.10;;
75716;SDS011;64333;50.138;14.332;2023-02-28T10:59:32;8.27;;;6.30;;
75716;SDS011;64333;50.138;14.332;2023-02-28T11:01:57;9.80;;;6.95;;
75716;SDS011;64333;50.138;14.332;2023-02-28T11:09:45;10.80;;;7.13;;
75716;SDS011;64333;50.138;14.332;2023-02-28T11:14:47;10.55;;;7.40;;
75716;SDS011;64333;50.138;14.332;2023-02-28T11:17:29;11.32;;;7.07;;
75716;SDS011;64333;50.138;14.332;2023-02-28T11:19:58;10.13;;;7.13;;
75716;SDS011;64333;50.138;14.332;2023-02-28T11:22:29;11.15;;;6.72;;
75716;SDS011;64333;50.138;14.332;2023-02-28T11:24:57;7.45;;;6.10;;
75716;SDS011;64333;50.138;14.332;2023-02-28T11:29:54;10.60;;;7.35;;
75716;SDS011;64333;50.138;14.332;2023-02-28T11:32:20;9.95;;;6.55;;
75716;SDS011;64333;50.138;14.332;2023-02-28T11:34:59;9.60;;;7.18;;
75716;SDS011;64333;50.138;14.332;2023-02-28T11:37:28;10.40;;;7.25;;
75716;SDS011;64333;50.138;14.332;2023-02-28T11:39:55;9.25;;;6.72;;
75716;SDS011;64333;50.138;14.332;2023-02-28T11:45:18;10.13;;;7.55;;
75716;SDS011;64333;50.138;14.332;2023-02-28T11:58:38;9.77;;;6.43;;
75716;SDS011;64333;50.138;14.332;2023-02-28T12:07:00;9.00;;;6.38;;
75716;SDS011;64333;50.138;14.332;2023-02-28T12:12:37;13.00;;;8.32;;
75716;SDS011;64333;50.138;14.332;2023-02-28T12:21:11;8.95;;;6.95;;
75716;SDS011;64333;50.138;14.332;2023-02-28T12:26:45;10.80;;;7.38;;
75716;SDS011;64333;50.138;14.332;2023-02-28T12:34:39;9.55;;;6.78;;
75716;SDS011;64333;50.138;14.332;2023-02-28T12:37:10;9.27;;;6.65;;
75716;SDS011;64333;50.138;14.332;2023-02-28T12:39:44;11.40;;;6.78;;
75716;SDS011;64333;50.138;14.332;2023-02-28T12:42:13;10.63;;;7.50;;
75716;SDS011;64333;50.138;14.332;2023-02-28T12:44:52;12.63;;;8.00;;
75716;SDS011;64333;50.138;14.332;2023-02-28T12:47:21;11.18;;;7.20;;
75716;SDS011;64333;50.138;14.332;2023-02-28T12:49:49;11.45;;;8.27;;
75716;SDS011;64333;50.138;14.332;2023-02-28T12:52:31;12.98;;;8.43;;
75716;SDS011;64333;50.138;14.332;2023-02-28T12:55:13;10.57;;;7.53;;
75716;SDS011;64333;50.138;14.332;2023-02-28T13:00:59;10.48;;;6.68;;
75716;SDS011;64333;50.138;14.332;2023-02-28T13:03:41;8.68;;;6.78;;
75716;SDS011;64333;50.138;14.332;2023-02-28T13:09:07;9.88;;;6.80;;
75716;SDS011;64333;50.138;14.332;2023-02-28T13:11:40;10.95;;;7.32;;
75716;SDS011;64333;50.138;14.332;2023-02-28T13:14:14;10.93;;;7.53;;
75716;SDS011;64333;50.138;14.332;2023-02-28T13:16:55;11.63;;;8.32;;
75716;SDS011;64333;50.138;14.332;2023-02-28T13:19:42;9.55;;;6.30;;
75716;SDS011;64333;50.138;14.332;2023-02-28T13:25:50;10.70;;;6.75;;
75716;SDS011;64333;50.138;14.332;2023-02-28T13:27:58;12.77;;;8.45;;
75716;SDS011;64333;50.138;14.332;2023-02-28T13:33:21;11.52;;;8.13;;
75716;SDS011;64333;50.138;14.332;2023-02-28T13:38:48;10.93;;;6.57;;
75716;SDS011;64333;50.138;14.332;2023-02-28T13:57:39;11.70;;;7.93;;
75716;SDS011;64333;50.138;14.332;2023-02-28T14:05:28;10.85;;;7.38;;
75716;SDS011;64333;50.138;14.332;2023-02-28T14:07:58;10.55;;;7.57;;
75716;SDS011;64333;50.138;14.332;2023-02-28T14:10:30;9.15;;;7.43;;
75716;SDS011;64333;50.138;14.332;2023-02-28T14:13:02;12.45;;;7.38;;
75716;SDS011;64333;50.138;14.332;2023-02-28T14:18:25;11.63;;;7.25;;
75716;SDS011;64333;50.138;14.332;2023-02-28T14:36:03;12.18;;;7.93;;
75716;SDS011;64333;50.138;14.332;2023-02-28T14:38:36;13.75;;;8.75;;
75716;SDS011;64333;50.138;14.332;2023-02-28T14:41:12;12.18;;;7.45;;
75716;SDS011;64333;50.138;14.332;2023-02-28T14:43:52;11.43;;;7.40;;
75716;SDS011;64333;50.138;14.332;2023-02-28T14:46:20;11.73;;;7.70;;
75716;SDS011;64333;50.138;14.332;2023-02-28T14:48:47;13.32;;;8.35;;
75716;SDS011;64333;50.138;14.332;2023-02-28T14:51:18;13.32;;;8.75;;
75716;SDS011;64333;50.138;14.332;2023-02-28T14:53:46;11.70;;;7.95;;
75716;SDS011;64333;50.138;14.332;2023-02-28T14:56:29;14.25;;;8.85;;
75716;SDS011;64333;50.138;14.332;2023-02-28T14:59:00;12.38;;;7.68;;
75716;SDS011;64333;50.138;14.332;2023-02-28T15:01:25;11.95;;;7.63;;
75716;SDS011;64333;50.138;14.332;2023-02-28T15:03:58;12.20;;;7.90;;
75716;SDS011;64333;50.138;14.332;2023-02-28T15:06:29;12.30;;;8.10;;
75716;SDS011;64333;50.138;14.332;2023-02-28T15:09:13;12.52;;;8.00;;
75716;SDS011;64333;50.138;14.332;2023-02-28T15:11:40;12.23;;;8.00;;
75716;SDS011;64333;50.138;14.332;2023-02-28T15:14:07;15.40;;;8.82;;
75716;SDS011;64333;50.138;14.332;2023-02-28T15:16:44;12.80;;;8.00;;
75716;SDS011;64333;50.138;14.332;2023-02-28T15:21:54;16.42;;;9.27;;
75716;SDS011;64333;50.138;14.332;2023-02-28T15:24:30;14.93;;;8.38;;
75716;SDS011;64333;50.138;14.332;2023-02-28T15:27:03;13.98;;;7.93;;
75716;SDS011;64333;50.138;14.332;2023-02-28T15:29:42;15.70;;;9.30;;
75716;SDS011;64333;50.138;14.332;2023-02-28T15:32:26;12.82;;;8.30;;
75716;SDS011;64333;50.138;14.332;2023-02-28T15:34:53;12.13;;;7.07;;
75716;SDS011;64333;50.138;14.332;2023-02-28T15:39:55;13.52;;;7.22;;
75716;SDS011;64333;50.138;14.332;2023-02-28T15:42:23;15.38;;;7.90;;
75716;SDS011;64333;50.138;14.332;2023-02-28T15:44:53;14.45;;;8.70;;
75716;SDS011;64333;50.138;14.332;2023-02-28T15:47:22;11.35;;;6.93;;
75716;SDS011;64333;50.138;14.332;2023-02-28T15:49:54;12.75;;;7.82;;
75716;SDS011;64333;50.138;14.332;2023-02-28T15:55:15;15.93;;;6.93;;
75716;SDS011;64333;50.138;14.332;2023-02-28T15:57:44;12.82;;;7.40;;
75716;SDS011;64333;50.138;14.332;2023-02-28T16:00:14;12.57;;;7.28;;
75716;SDS011;64333;50.138;14.332;2023-02-28T16:02:43;12.18;;;7.22;;
75716;SDS011;64333;50.138;14.332;2023-02-28T16:07:38;13.03;;;7.27;;
75716;SDS011;64333;50.138;14.332;2023-02-28T16:10:06;12.80;;;8.38;;
75716;SDS011;64333;50.138;14.332;2023-02-28T16:12:35;13.45;;;7.57;;
75716;SDS011;64333;50.138;14.332;2023-02-28T16:15:07;15.02;;;8.95;;
75716;SDS011;64333;50.138;14.332;2023-02-28T16:17:42;11.73;;;6.57;;
75716;SDS011;64333;50.138;14.332;2023-02-28T16:20:14;14.95;;;7.85;;
75716;SDS011;64333;50.138;14.332;2023-02-28T16:22:42;12.43;;;7.88;;
75716;SDS011;64333;50.138;14.332;2023-02-28T16:25:11;13.55;;;7.18;;
75716;SDS011;64333;50.138;14.332;2023-02-28T16:27:59;13.13;;;6.32;;
75716;SDS011;64333;50.138;14.332;2023-02-28T16:30:26;13.45;;;6.85;;
75716;SDS011;64333;50.138;14.332;2023-02-28T16:32:54;12.00;;;7.00;;
75716;SDS011;64333;50.138;14.332;2023-02-28T16:35:21;13.18;;;6.90;;
75716;SDS011;64333;50.138;14.332;2023-02-28T16:37:47;11.85;;;6.75;;
75716;SDS011;64333;50.138;14.332;2023-02-28T16:40:16;13.07;;;7.28;;
75716;SDS011;64333;50.138;14.332;2023-02-28T16:42:43;13.32;;;7.25;;
75716;SDS011;64333;50.138;14.332;2023-02-28T16:45:21;15.57;;;7.95;;
75716;SDS011;64333;50.138;14.332;2023-02-28T16:47:48;13.93;;;8.13;;
75716;SDS011;64333;50.138;14.332;2023-02-28T16:50:18;13.77;;;7.75;;
75716;SDS011;64333;50.138;14.332;2023-02-28T16:52:44;13.10;;;6.90;;
75716;SDS011;64333;50.138;14.332;2023-02-28T16:55:09;13.38;;;7.65;;
75716;SDS011;64333;50.138;14.332;2023-02-28T16:57:35;15.65;;;8.40;;
75716;SDS011;64333;50.138;14.332;2023-02-28T17:00:02;15.60;;;8.77;;
75716;SDS011;64333;50.138;14.332;2023-02-28T17:02:40;16.13;;;8.32;;
75716;SDS011;64333;50.138;14.332;2023-02-28T17:05:41;18.13;;;9.65;;
75716;SDS011;64333;50.138;14.332;2023-02-28T17:08:06;17.23;;;9.57;;
75716;SDS011;64333;50.138;14.332;2023-02-28T17:10:32;19.45;;;9.15;;
75716;SDS011;64333;50.138;14.332;2023-02-28T17:12:57;15.57;;;9.25;;
75716;SDS011;64333;50.138;14.332;2023-02-28T17:15:22;19.67;;;9.55;;
75716;SDS011;64333;50.138;14.332;2023-02-28T17:17:48;15.32;;;8.60;;
75716;SDS011;64333;50.138;14.332;2023-02-28T17:20:19;17.23;;;8.98;;
75716;SDS011;64333;50.138;14.332;2023-02-28T17:22:47;18.30;;;9.50;;
75716;SDS011;64333;50.138;14.332;2023-02-28T17:25:14;19.08;;;9.52;;
75716;SDS011;64333;50.138;14.332;2023-02-28T17:27:39;19.23;;;9.55;;